createdAt,value
2018-02-21T00:03:57.748Z,1.20
2018-02-21T00:08:58.720Z,1.20
2018-02-21T00:14:00.430Z,1.20
2018-02-21T00:19:01.391Z,1.20
2018-02-21T00:24:03.110Z,1.20
2018-02-21T00:29:04.071Z,1.20
2018-02-21T00:34:05.783Z,1.20
2018-02-21T00:39:07.598Z,1.20
2018-02-21T00:44:08.519Z,1.20
2018-02-21T00:49:09.487Z,1.20
2018-02-21T00:54:10.460Z,1.20
2018-02-21T00:59:11.443Z,1.20
2018-02-21T01:04:12.421Z,1.10
2018-02-21T01:09:13.391Z,1.00
2018-02-21T01:14:14.359Z,0.90
2018-02-21T01:19:15.347Z,0.80
2018-02-21T01:24:16.329Z,0.70
2018-02-21T01:29:17.302Z,0.60
2018-02-21T01:34:19.032Z,0.50
2018-02-21T01:39:20.000Z,0.40
2018-02-21T01:44:20.985Z,0.40
2018-02-21T01:49:21.977Z,0.30
2018-02-21T01:54:22.992Z,0.30
2018-02-21T01:59:23.992Z,0.30
2018-02-21T02:04:24.992Z,0.30
2018-02-21T02:09:26.743Z,0.50
2018-02-21T02:14:27.732Z,0.40
2018-02-21T02:19:28.768Z,0.50
2018-02-21T02:24:29.752Z,0.50
2018-02-21T02:29:30.743Z,0.50
2018-02-21T02:34:31.743Z,0.60
2018-02-21T02:39:45.237Z,0.60
2018-02-21T02:44:46.229Z,0.50
2018-02-21T02:49:47.217Z,0.50
2018-02-21T02:54:48.215Z,0.50
2018-02-21T02:59:49.963Z,0.30
2018-02-21T03:04:50.959Z,0.30
2018-02-21T03:09:51.951Z,0.30
2018-02-21T03:14:52.943Z,0.20
2018-02-21T03:19:53.944Z,0.10
2018-02-21T03:24:55.684Z,0.10
2018-02-21T03:29:56.697Z,0.00
2018-02-21T03:34:57.676Z,0.10
2018-02-21T03:39:58.699Z,0.00
2018-02-21T03:45:00.432Z,0.00
2018-02-21T03:50:01.674Z,-0.10
2018-02-21T03:55:02.672Z,0.00
2018-02-21T04:00:04.412Z,-0.10
2018-02-21T04:05:05.642Z,-0.20
2018-02-21T04:10:06.615Z,-0.10
2018-02-21T04:15:07.619Z,-0.10
2018-02-21T04:20:09.344Z,-0.20
2018-02-21T04:25:10.327Z,-0.20
2018-02-21T04:30:11.644Z,-0.20
2018-02-21T04:35:12.647Z,-0.20
2018-02-21T04:40:13.880Z,-0.20
2018-02-21T04:45:14.879Z,-0.20
2018-02-21T04:50:16.183Z,-0.20
2018-02-21T05:00:57.742Z,-0.20
2018-02-21T05:05:58.740Z,-0.20
2018-02-21T05:10:59.724Z,-0.20
2018-02-21T05:16:01.039Z,-0.30
2018-02-21T05:21:02.032Z,-0.20
2018-02-21T05:26:03.255Z,-0.30
2018-02-21T05:31:04.255Z,-0.30
2018-02-21T05:36:05.303Z,-0.30
2018-02-21T05:41:06.311Z,-0.30
2018-02-21T05:46:08.048Z,-0.30
2018-02-21T05:51:09.044Z,-0.40
2018-02-21T05:56:10.056Z,-0.40
2018-02-21T06:01:11.069Z,-0.40
2018-02-21T06:06:12.073Z,-0.40
2018-02-21T06:11:13.092Z,-0.40
2018-02-21T06:16:29.041Z,-0.40
2018-02-21T06:21:30.780Z,-0.50
2018-02-21T06:26:31.782Z,-0.60
2018-02-21T06:31:32.778Z,-0.50
2018-02-21T06:36:33.779Z,-0.60
2018-02-21T06:41:34.806Z,-0.60
2018-02-21T06:46:35.817Z,-0.60
2018-02-21T06:51:36.836Z,-0.60
2018-02-21T06:56:37.831Z,-0.60
2018-02-21T07:01:39.559Z,-0.30
2018-02-21T07:06:40.570Z,-0.40
2018-02-21T07:11:41.571Z,-0.10
2018-02-21T07:16:42.569Z,0.10
2018-02-21T07:21:43.560Z,0.30
2018-02-21T07:26:45.309Z,0.70
2018-02-21T07:31:46.317Z,0.70
2018-02-21T07:36:47.319Z,0.90
2018-02-21T07:41:49.079Z,1.40
2018-02-21T07:46:50.083Z,1.30
2018-02-21T07:51:51.092Z,1.40
2018-02-21T07:56:52.853Z,2.20
2018-02-21T08:01:53.860Z,2.10
2018-02-21T08:06:54.855Z,2.50
2018-02-21T08:11:56.591Z,2.70
2018-02-21T08:16:57.609Z,2.70
2018-02-21T08:21:58.615Z,2.90
2018-02-21T08:26:59.592Z,3.10
2018-02-21T08:32:00.596Z,3.50
2018-02-21T08:37:02.332Z,3.60
2018-02-21T08:42:03.332Z,3.50
2018-02-21T08:47:04.358Z,4.00
2018-02-21T08:52:06.131Z,5.00
2018-02-21T08:57:07.139Z,4.90
2018-02-21T09:02:08.872Z,5.50
2018-02-21T09:07:09.879Z,5.40
2018-02-21T09:12:10.895Z,5.80
2018-02-21T09:17:12.628Z,5.50
2018-02-21T09:22:13.620Z,5.40
2018-02-21T09:27:14.609Z,5.10
2018-02-21T09:32:15.648Z,5.20
2018-02-21T09:37:16.664Z,5.60
2018-02-21T09:42:17.662Z,5.70
2018-02-21T09:47:18.686Z,5.80
2018-02-21T09:52:19.694Z,5.70
2018-02-21T09:57:20.731Z,6.20
2018-02-21T10:02:21.732Z,5.80
2018-02-21T10:07:23.483Z,6.40
2018-02-21T10:12:24.483Z,6.40
2018-02-21T10:17:25.486Z,6.90
2018-02-21T10:22:26.483Z,6.70
2018-02-21T10:27:27.501Z,7.60
2018-02-21T10:32:28.523Z,6.70
2018-02-21T10:37:29.515Z,6.90
2018-02-21T10:42:30.519Z,5.70
2018-02-21T10:47:32.254Z,4.80
2018-02-21T10:52:33.251Z,4.70
2018-02-21T10:57:34.252Z,5.10
2018-02-21T11:02:35.248Z,4.80
2018-02-21T11:07:37.014Z,4.80
2018-02-21T11:12:38.012Z,4.80
2018-02-21T11:17:39.017Z,4.80
2018-02-21T11:22:39.996Z,4.60
2018-02-21T11:27:41.003Z,4.50
2018-02-21T11:32:42.744Z,4.50
2018-02-21T11:37:43.745Z,4.40
2018-02-21T11:42:44.746Z,4.60
2018-02-21T11:47:45.737Z,5.00
2018-02-21T11:52:46.731Z,5.00
2018-02-21T11:57:48.477Z,4.90
2018-02-21T12:02:49.484Z,4.80
2018-02-21T12:07:50.498Z,5.20
2018-02-21T12:12:52.228Z,5.20
2018-02-21T12:17:53.215Z,5.10
2018-02-21T12:22:54.216Z,5.00
2018-02-21T12:27:55.204Z,5.10
2018-02-21T12:32:56.991Z,4.90
2018-02-21T12:37:57.987Z,5.20
2018-02-21T12:42:58.976Z,5.00
2018-02-21T12:47:59.971Z,5.10
2018-02-21T12:53:01.188Z,5.30
2018-02-21T12:58:02.916Z,5.20
2018-02-21T13:03:03.912Z,5.20
2018-02-21T13:08:04.899Z,5.30
2018-02-21T13:13:05.891Z,4.90
2018-02-21T13:18:06.881Z,4.90
2018-02-21T13:23:07.888Z,5.30
2018-02-21T13:28:09.635Z,5.40
2018-02-21T13:33:10.646Z,5.30
2018-02-21T13:38:11.643Z,5.60
2018-02-21T13:43:12.644Z,5.80
2018-02-21T13:48:14.400Z,5.80
2018-02-21T13:53:15.403Z,5.70
2018-02-21T13:58:17.152Z,5.70
2018-02-21T14:03:18.163Z,5.70
2018-02-21T14:08:19.188Z,5.70
2018-02-21T14:13:20.944Z,6.00
2018-02-21T14:18:21.940Z,5.90
2018-02-21T14:23:22.946Z,5.90
2018-02-21T14:28:24.667Z,5.80
2018-02-21T14:33:25.668Z,5.70
2018-02-21T14:38:26.671Z,5.80
2018-02-21T14:43:27.681Z,5.70
2018-02-21T14:48:28.672Z,5.70
2018-02-21T14:53:29.668Z,5.70
2018-02-21T14:58:31.424Z,5.60
2018-02-21T15:03:39.352Z,5.60
2018-02-21T15:08:40.339Z,5.60
2018-02-21T15:13:41.327Z,5.60
2018-02-21T15:18:42.336Z,5.60
2018-02-21T15:23:43.323Z,5.70
2018-02-21T15:28:44.328Z,5.60
2018-02-21T15:33:46.067Z,5.50
2018-02-21T15:38:47.142Z,5.50
2018-02-21T15:43:48.072Z,5.50
2018-02-21T15:48:49.070Z,5.40
2018-02-21T15:53:57.812Z,5.30
2018-02-21T15:58:58.806Z,5.30
2018-02-21T16:03:59.800Z,5.20
2018-02-21T16:09:01.520Z,5.00
2018-02-21T16:14:02.508Z,5.00
2018-02-21T16:19:03.539Z,4.90
2018-02-21T16:24:04.537Z,4.80
2018-02-21T16:29:05.562Z,4.70
2018-02-21T16:34:07.265Z,4.50
2018-02-21T16:39:08.265Z,4.40
2018-02-21T16:44:09.290Z,4.40
2018-02-21T16:49:10.253Z,4.30
2018-02-21T16:54:15.145Z,4.20
2018-02-21T16:59:16.160Z,4.10
2018-02-21T17:04:17.226Z,4.00
2018-02-21T17:09:18.963Z,3.80
2018-02-21T17:14:19.972Z,3.70
2018-02-21T17:19:21.966Z,3.60
2018-02-21T17:24:22.960Z,3.60
2018-02-21T17:29:23.959Z,3.40
2018-02-21T17:34:24.977Z,3.40
2018-02-21T17:39:26.053Z,3.30
2018-02-21T17:44:28.798Z,3.10
2018-02-21T17:49:30.131Z,3.00
2018-02-21T17:54:31.128Z,3.00
2018-02-21T17:59:32.125Z,2.90
2018-02-21T18:04:33.144Z,2.80
2018-02-21T18:09:34.140Z,2.80
2018-02-21T18:14:35.147Z,2.70
2018-02-21T18:19:36.164Z,2.60
2018-02-21T18:24:37.903Z,2.40
2018-02-21T18:29:38.915Z,2.40
2018-02-21T18:34:39.939Z,2.40
2018-02-21T18:39:40.944Z,2.40
2018-02-21T18:44:41.931Z,2.20
2018-02-21T18:49:42.937Z,2.10
2018-02-21T18:54:43.927Z,2.10
2018-02-21T18:59:44.908Z,2.00
2018-02-21T19:04:45.928Z,1.90
2018-02-21T19:09:48.310Z,1.80
2018-02-21T19:14:51.354Z,1.80
2018-02-21T19:19:52.593Z,1.80
2018-02-21T19:24:54.398Z,1.70
2018-02-21T19:29:55.400Z,1.60
2018-02-21T19:34:56.381Z,1.60
2018-02-21T19:39:57.355Z,1.40
2018-02-21T19:44:58.336Z,1.40
2018-02-21T19:49:59.316Z,1.40
2018-02-21T19:55:00.316Z,1.20
2018-02-21T20:00:01.455Z,1.20
2018-02-21T20:05:03.180Z,1.10
2018-02-21T20:10:04.167Z,1.00
2018-02-21T20:15:05.152Z,1.00
2018-02-21T20:20:06.204Z,1.00
2018-02-21T20:25:08.020Z,0.90
2018-02-21T20:30:09.036Z,0.80
2018-02-21T20:35:10.293Z,0.90
2018-02-21T20:40:11.279Z,0.80
2018-02-21T20:45:12.280Z,0.70
2018-02-21T20:50:13.276Z,0.70
2018-02-21T20:55:14.271Z,0.60
2018-02-21T21:00:15.311Z,0.60
2018-02-21T21:05:16.440Z,0.50
2018-02-21T21:10:17.440Z,0.60
2018-02-21T21:15:19.156Z,0.50
2018-02-21T21:20:20.151Z,0.50
2018-02-21T21:25:28.165Z,0.50
2018-02-21T21:30:29.156Z,0.50
2018-02-21T21:35:30.911Z,0.40
2018-02-21T21:40:31.911Z,0.30
2018-02-21T21:45:32.919Z,0.30
2018-02-21T21:50:34.664Z,0.30
2018-02-21T21:55:35.664Z,0.20
2018-02-21T22:00:36.648Z,0.20
2018-02-21T22:05:37.648Z,0.20
2018-02-21T22:10:38.635Z,0.20
2018-02-21T22:15:39.636Z,0.30
2018-02-21T22:20:40.655Z,0.20
2018-02-21T22:25:41.667Z,0.10
2018-02-21T22:30:42.659Z,0.10
2018-02-21T22:35:43.654Z,0.00
2018-02-21T22:40:44.648Z,0.10
2018-02-21T22:45:46.376Z,0.10
2018-02-21T22:50:47.361Z,0.00
2018-02-21T22:55:48.356Z,0.00
2018-02-21T23:00:49.368Z,-0.10
2018-02-21T23:05:50.375Z,-0.30
2018-02-21T23:10:52.117Z,-0.40
2018-02-21T23:15:53.103Z,-0.50
2018-02-21T23:20:54.104Z,-0.40
2018-02-21T23:25:55.090Z,-0.40
2018-02-21T23:30:56.076Z,-0.50
2018-02-21T23:35:57.065Z,-0.60
2018-02-21T23:40:58.051Z,-0.70
2018-02-21T23:45:59.035Z,-0.70
2018-02-21T23:51:00.025Z,-0.70
2018-02-21T23:56:01.024Z,-0.80
